sensor_id;sensor_type;location;lat;lon;timestamp;temperature;humidity
32394;DHT22;18853;45.426;9.206;2023-04-01T00:01:05;18.10;50.20
32394;DHT22;18853;45.426;9.206;2023-04-01T00:03:31;18.10;50.20
32394;DHT22;18853;45.426;9.206;2023-04-01T00:05:59;18.00;50.20
32394;DHT22;18853;45.426;9.206;2023-04-01T00:08:25;18.00;50.40
32394;DHT22;18853;45.426;9.206;2023-04-01T00:10:52;17.90;50.50
32394;DHT22;18853;45.426;9.206;2023-04-01T00:13:18;17.90;50.70
32394;DHT22;18853;45.426;9.206;2023-04-01T00:15:45;17.80;50.70
32394;DHT22;18853;45.426;9.206;2023-04-01T00:18:12;17.70;50.70
32394;DHT22;18853;45.426;9.206;2023-04-01T00:20:38;17.70;50.90
32394;DHT22;18853;45.426;9.206;2023-04-01T00:23:03;17.70;51.00
32394;DHT22;18853;45.426;9.206;2023-04-01T00:25:30;17.70;51.00
32394;DHT22;18853;45.426;9.206;2023-04-01T00:27:56;17.70;50.80
32394;DHT22;18853;45.426;9.206;2023-04-01T00:30:22;17.70;50.70
32394;DHT22;18853;45.426;9.206;2023-04-01T00:32:51;17.70;50.80
32394;DHT22;18853;45.426;9.206;2023-04-01T00:35:17;17.70;50.90
32394;DHT22;18853;45.426;9.206;2023-04-01T00:37:43;17.60;50.90
32394;DHT22;18853;45.426;9.206;2023-04-01T00:40:37;17.60;50.90
32394;DHT22;18853;45.426;9.206;2023-04-01T00:43:08;17.60;51.00
32394;DHT22;18853;45.426;9.206;2023-04-01T00:45:39;17.50;51.00
32394;DHT22;18853;45.426;9.206;2023-04-01T00:48:20;17.50;50.90
32394;DHT22;18853;45.426;9.206;2023-04-01T00:51:13;17.50;51.00
32394;DHT22;18853;45.426;9.206;2023-04-01T00:53:42;17.50;50.80
32394;DHT22;18853;45.426;9.206;2023-04-01T00:56:14;17.40;51.30
32394;DHT22;18853;45.426;9.206;2023-04-01T00:58:47;17.30;50.80
32394;DHT22;18853;45.426;9.206;2023-04-01T01:01:14;17.20;51.20
32394;DHT22;18853;45.426;9.206;2023-04-01T01:03:39;17.20;51.20
32394;DHT22;18853;45.426;9.206;2023-04-01T01:06:26;17.20;51.30
32394;DHT22;18853;45.426;9.206;2023-04-01T01:14:12;17.10;51.00
32394;DHT22;18853;45.426;9.206;2023-04-01T01:16:45;17.10;51.20
32394;DHT22;18853;45.426;9.206;2023-04-01T01:24:55;16.90;51.30
32394;DHT22;18853;45.426;9.206;2023-04-01T01:27:24;16.90;51.30
32394;DHT22;18853;45.426;9.206;2023-04-01T01:32:52;16.80;51.60
32394;DHT22;18853;45.426;9.206;2023-04-01T01:35:34;16.80;51.60
32394;DHT22;18853;45.426;9.206;2023-04-01T01:38:09;16.70;51.70
32394;DHT22;18853;45.426;9.206;2023-04-01T01:40:36;16.60;51.70
32394;DHT22;18853;45.426;9.206;2023-04-01T01:43:08;16.60;51.80
32394;DHT22;18853;45.426;9.206;2023-04-01T01:45:37;16.60;51.80
32394;DHT22;18853;45.426;9.206;2023-04-01T01:48:07;16.60;51.90
32394;DHT22;18853;45.426;9.206;2023-04-01T01:50:35;16.60;52.00
32394;DHT22;18853;45.426;9.206;2023-04-01T01:53:06;16.50;52.20
32394;DHT22;18853;45.426;9.206;2023-04-01T01:55:38;16.50;52.20
32394;DHT22;18853;45.426;9.206;2023-04-01T01:58:27;16.40;52.20
32394;DHT22;18853;45.426;9.206;2023-04-01T02:01:05;16.50;52.30
32394;DHT22;18853;45.426;9.206;2023-04-01T02:03:34;16.40;52.20
32394;DHT22;18853;45.426;9.206;2023-04-01T02:06:04;16.30;52.40
32394;DHT22;18853;45.426;9.206;2023-04-01T02:08:42;16.40;52.60
32394;DHT22;18853;45.426;9.206;2023-04-01T02:11:11;16.40;52.50
32394;DHT22;18853;45.426;9.206;2023-04-01T02:14:01;16.50;52.20
32394;DHT22;18853;45.426;9.206;2023-04-01T02:16:53;16.50;52.30
32394;DHT22;18853;45.426;9.206;2023-04-01T02:19:22;16.50;52.20
32394;DHT22;18853;45.426;9.206;2023-04-01T02:21:55;16.50;52.20
32394;DHT22;18853;45.426;9.206;2023-04-01T02:24:24;16.50;52.20
32394;DHT22;18853;45.426;9.206;2023-04-01T02:26:51;16.50;52.20
32394;DHT22;18853;45.426;9.206;2023-04-01T02:29:24;16.50;52.20
32394;DHT22;18853;45.426;9.206;2023-04-01T02:31:53;16.50;52.20
32394;DHT22;18853;45.426;9.206;2023-04-01T02:34:21;16.50;52.20
32394;DHT22;18853;45.426;9.206;2023-04-01T02:36:49;16.50;52.20
32394;DHT22;18853;45.426;9.206;2023-04-01T02:39:15;16.50;52.20
32394;DHT22;18853;45.426;9.206;2023-04-01T02:41:43;16.50;52.10
32394;DHT22;18853;45.426;9.206;2023-04-01T02:44:10;16.50;52.20
32394;DHT22;18853;45.426;9.206;2023-04-01T02:46:36;16.50;52.10
32394;DHT22;18853;45.426;9.206;2023-04-01T02:49:02;16.50;52.30
32394;DHT22;18853;45.426;9.206;2023-04-01T02:51:28;16.50;52.30
32394;DHT22;18853;45.426;9.206;2023-04-01T02:53:54;16.50;52.20
32394;DHT22;18853;45.426;9.206;2023-04-01T02:56:20;16.50;52.30
32394;DHT22;18853;45.426;9.206;2023-04-01T02:58:47;16.50;52.30
32394;DHT22;18853;45.426;9.206;2023-04-01T03:01:13;16.60;52.30
32394;DHT22;18853;45.426;9.206;2023-04-01T03:03:38;16.50;52.40
32394;DHT22;18853;45.426;9.206;2023-04-01T03:06:09;16.50;52.30
32394;DHT22;18853;45.426;9.206;2023-04-01T03:08:35;16.50;52.30
32394;DHT22;18853;45.426;9.206;2023-04-01T03:11:01;16.50;52.30
32394;DHT22;18853;45.426;9.206;2023-04-01T03:13:26;16.60;52.30
32394;DHT22;18853;45.426;9.206;2023-04-01T03:15:52;16.50;52.20
32394;DHT22;18853;45.426;9.206;2023-04-01T03:18:18;16.50;52.20
32394;DHT22;18853;45.426;9.206;2023-04-01T03:20:44;16.50;52.30
32394;DHT22;18853;45.426;9.206;2023-04-01T03:23:10;16.50;52.20
32394;DHT22;18853;45.426;9.206;2023-04-01T03:25:36;16.50;52.20
32394;DHT22;18853;45.426;9.206;2023-04-01T03:28:02;16.40;52.30
32394;DHT22;18853;45.426;9.206;2023-04-01T03:30:28;16.40;52.30
32394;DHT22;18853;45.426;9.206;2023-04-01T03:32:57;16.50;52.20
32394;DHT22;18853;45.426;9.206;2023-04-01T03:35:23;16.40;52.30
32394;DHT22;18853;45.426;9.206;2023-04-01T03:37:50;16.40;52.50
32394;DHT22;18853;45.426;9.206;2023-04-01T03:40:16;16.30;52.50
32394;DHT22;18853;45.426;9.206;2023-04-01T03:42:42;16.30;52.60
32394;DHT22;18853;45.426;9.206;2023-04-01T03:45:08;16.30;52.50
32394;DHT22;18853;45.426;9.206;2023-04-01T03:47:34;16.30;52.40
32394;DHT22;18853;45.426;9.206;2023-04-01T03:50:00;16.30;52.50
32394;DHT22;18853;45.426;9.206;2023-04-01T03:52:26;16.30;52.50
32394;DHT22;18853;45.426;9.206;2023-04-01T03:54:52;16.30;52.50
32394;DHT22;18853;45.426;9.206;2023-04-01T03:57:18;16.30;52.60
32394;DHT22;18853;45.426;9.206;2023-04-01T03:59:43;16.20;52.60
32394;DHT22;18853;45.426;9.206;2023-04-01T04:02:09;16.20;52.50
32394;DHT22;18853;45.426;9.206;2023-04-01T04:04:35;16.30;52.30
32394;DHT22;18853;45.426;9.206;2023-04-01T04:07:01;16.30;52.10
32394;DHT22;18853;45.426;9.206;2023-04-01T04:09:26;16.30;52.00
32394;DHT22;18853;45.426;9.206;2023-04-01T04:11:52;16.40;52.00
32394;DHT22;18853;45.426;9.206;2023-04-01T04:14:18;16.40;51.70
32394;DHT22;18853;45.426;9.206;2023-04-01T04:16:44;16.40;51.60
32394;DHT22;18853;45.426;9.206;2023-04-01T04:19:11;16.40;51.40
32394;DHT22;18853;45.426;9.206;2023-04-01T04:21:36;16.50;51.40
32394;DHT22;18853;45.426;9.206;2023-04-01T04:24:02;16.40;51.30
32394;DHT22;18853;45.426;9.206;2023-04-01T04:26:28;16.40;51.30
32394;DHT22;18853;45.426;9.206;2023-04-01T04:28:54;16.40;51.20
32394;DHT22;18853;45.426;9.206;2023-04-01T04:31:22;16.40;51.10
32394;DHT22;18853;45.426;9.206;2023-04-01T04:33:49;16.40;51.10
32394;DHT22;18853;45.426;9.206;2023-04-01T04:36:15;16.30;51.00
32394;DHT22;18853;45.426;9.206;2023-04-01T04:38:41;16.30;50.90
32394;DHT22;18853;45.426;9.206;2023-04-01T04:41:11;16.30;50.90
32394;DHT22;18853;45.426;9.206;2023-04-01T04:43:38;16.30;50.80
32394;DHT22;18853;45.426;9.206;2023-04-01T04:46:08;16.20;50.90
32394;DHT22;18853;45.426;9.206;2023-04-01T04:48:35;16.30;50.70
32394;DHT22;18853;45.426;9.206;2023-04-01T04:51:01;16.20;50.70
32394;DHT22;18853;45.426;9.206;2023-04-01T04:53:27;16.30;50.60
32394;DHT22;18853;45.426;9.206;2023-04-01T04:55:53;16.30;50.40
32394;DHT22;18853;45.426;9.206;2023-04-01T04:58:19;16.30;50.40
32394;DHT22;18853;45.426;9.206;2023-04-01T05:00:45;16.30;50.50
32394;DHT22;18853;45.426;9.206;2023-04-01T05:03:12;16.30;50.40
32394;DHT22;18853;45.426;9.206;2023-04-01T05:05:38;16.30;50.50
32394;DHT22;18853;45.426;9.206;2023-04-01T05:08:04;16.20;50.40
32394;DHT22;18853;45.426;9.206;2023-04-01T05:10:30;16.20;50.40
32394;DHT22;18853;45.426;9.206;2023-04-01T05:12:57;16.20;50.30
32394;DHT22;18853;45.426;9.206;2023-04-01T05:15:22;16.20;50.30
32394;DHT22;18853;45.426;9.206;2023-04-01T05:17:48;16.20;50.40
32394;DHT22;18853;45.426;9.206;2023-04-01T05:20:14;16.20;50.40
32394;DHT22;18853;45.426;9.206;2023-04-01T05:22:40;16.20;50.20
32394;DHT22;18853;45.426;9.206;2023-04-01T05:25:06;16.10;50.10
32394;DHT22;18853;45.426;9.206;2023-04-01T05:27:32;16.10;50.10
32394;DHT22;18853;45.426;9.206;2023-04-01T05:29:58;16.10;50.30
32394;DHT22;18853;45.426;9.206;2023-04-01T05:32:24;16.00;50.40
32394;DHT22;18853;45.426;9.206;2023-04-01T05:34:51;16.00;50.50
32394;DHT22;18853;45.426;9.206;2023-04-01T05:37:17;16.00;50.50
32394;DHT22;18853;45.426;9.206;2023-04-01T05:39:43;16.00;50.40
32394;DHT22;18853;45.426;9.206;2023-04-01T05:42:09;16.10;50.50
32394;DHT22;18853;45.426;9.206;2023-04-01T05:44:35;16.10;50.40
32394;DHT22;18853;45.426;9.206;2023-04-01T05:47:02;16.00;50.40
32394;DHT22;18853;45.426;9.206;2023-04-01T05:49:28;16.10;50.40
32394;DHT22;18853;45.426;9.206;2023-04-01T05:51:54;16.10;50.70
32394;DHT22;18853;45.426;9.206;2023-04-01T05:54:19;16.10;50.50
32394;DHT22;18853;45.426;9.206;2023-04-01T05:56:45;16.10;50.60
32394;DHT22;18853;45.426;9.206;2023-04-01T05:59:12;16.10;51.30
32394;DHT22;18853;45.426;9.206;2023-04-01T06:01:38;16.00;50.50
32394;DHT22;18853;45.426;9.206;2023-04-01T06:04:03;16.00;50.60
32394;DHT22;18853;45.426;9.206;2023-04-01T06:06:30;16.00;50.60
32394;DHT22;18853;45.426;9.206;2023-04-01T06:09:15;16.00;50.40
32394;DHT22;18853;45.426;9.206;2023-04-01T06:14:47;16.00;50.40
32394;DHT22;18853;45.426;9.206;2023-04-01T06:17:37;16.10;50.40
32394;DHT22;18853;45.426;9.206;2023-04-01T06:20:26;16.00;50.40
32394;DHT22;18853;45.426;9.206;2023-04-01T06:31:33;16.00;50.50
32394;DHT22;18853;45.426;9.206;2023-04-01T06:45:24;15.90;50.70
32394;DHT22;18853;45.426;9.206;2023-04-01T06:51:07;16.00;50.70
32394;DHT22;18853;45.426;9.206;2023-04-01T06:53:49;16.00;50.60
32394;DHT22;18853;45.426;9.206;2023-04-01T06:56:21;16.10;50.60
32394;DHT22;18853;45.426;9.206;2023-04-01T06:58:56;16.10;50.40
32394;DHT22;18853;45.426;9.206;2023-04-01T07:01:41;16.20;50.40
32394;DHT22;18853;45.426;9.206;2023-04-01T07:04:31;16.20;50.20
32394;DHT22;18853;45.426;9.206;2023-04-01T07:07:04;16.20;50.20
32394;DHT22;18853;45.426;9.206;2023-04-01T07:09:43;16.30;50.10
32394;DHT22;18853;45.426;9.206;2023-04-01T07:12:43;16.40;50.10
32394;DHT22;18853;45.426;9.206;2023-04-01T07:15:24;16.40;50.20
32394;DHT22;18853;45.426;9.206;2023-04-01T07:18:02;16.40;50.40
32394;DHT22;18853;45.426;9.206;2023-04-01T07:20:31;16.40;50.50
32394;DHT22;18853;45.426;9.206;2023-04-01T07:23:03;16.40;50.30
32394;DHT22;18853;45.426;9.206;2023-04-01T07:25:35;16.40;50.40
32394;DHT22;18853;45.426;9.206;2023-04-01T07:28:10;16.40;50.30
32394;DHT22;18853;45.426;9.206;2023-04-01T07:50:50;17.70;48.30
32394;DHT22;18853;45.426;9.206;2023-04-01T08:06:47;17.30;47.20
32394;DHT22;18853;45.426;9.206;2023-04-01T08:09:43;17.20;47.40
32394;DHT22;18853;45.426;9.206;2023-04-01T08:17:38;17.10;47.80
32394;DHT22;18853;45.426;9.206;2023-04-01T08:20:23;17.20;47.70
32394;DHT22;18853;45.426;9.206;2023-04-01T08:22:57;17.20;47.90
32394;DHT22;18853;45.426;9.206;2023-04-01T08:25:26;17.20;47.90
32394;DHT22;18853;45.426;9.206;2023-04-01T08:28:17;17.20;47.70
32394;DHT22;18853;45.426;9.206;2023-04-01T08:31:09;17.40;48.60
32394;DHT22;18853;45.426;9.206;2023-04-01T08:33:37;17.60;48.10
32394;DHT22;18853;45.426;9.206;2023-04-01T08:36:16;17.60;47.70
32394;DHT22;18853;45.426;9.206;2023-04-01T08:38:51;17.80;47.60
32394;DHT22;18853;45.426;9.206;2023-04-01T08:52:36;17.90;46.80
32394;DHT22;18853;45.426;9.206;2023-04-01T09:00:53;17.90;46.80
32394;DHT22;18853;45.426;9.206;2023-04-01T09:26:27;18.70;49.80
32394;DHT22;18853;45.426;9.206;2023-04-01T09:29:24;19.00;48.90
32394;DHT22;18853;45.426;9.206;2023-04-01T09:32:16;19.20;48.10
32394;DHT22;18853;45.426;9.206;2023-04-01T09:37:52;19.50;47.60
32394;DHT22;18853;45.426;9.206;2023-04-01T09:40:21;19.60;45.90
32394;DHT22;18853;45.426;9.206;2023-04-01T09:56:33;19.10;45.30
32394;DHT22;18853;45.426;9.206;2023-04-01T09:59:21;19.10;45.80
32394;DHT22;18853;45.426;9.206;2023-04-01T10:50:23;19.30;43.00
32394;DHT22;18853;45.426;9.206;2023-04-01T11:00:54;19.40;40.80
32394;DHT22;18853;45.426;9.206;2023-04-01T11:07:23;19.60;39.80
32394;DHT22;18853;45.426;9.206;2023-04-01T11:44:27;20.20;33.10
32394;DHT22;18853;45.426;9.206;2023-04-01T11:47:26;20.30;33.00
32394;DHT22;18853;45.426;9.206;2023-04-01T11:52:58;20.40;30.00
32394;DHT22;18853;45.426;9.206;2023-04-01T11:58:49;20.70;29.00
32394;DHT22;18853;45.426;9.206;2023-04-01T12:26:09;21.60;25.10
32394;DHT22;18853;45.426;9.206;2023-04-01T12:28:57;21.70;25.50
32394;DHT22;18853;45.426;9.206;2023-04-01T12:31:31;21.80;25.50
32394;DHT22;18853;45.426;9.206;2023-04-01T12:44:56;22.40;22.40
32394;DHT22;18853;45.426;9.206;2023-04-01T12:55:36;22.80;22.10
32394;DHT22;18853;45.426;9.206;2023-04-01T13:07:02;23.00;22.20
32394;DHT22;18853;45.426;9.206;2023-04-01T13:10:02;23.10;22.50
32394;DHT22;18853;45.426;9.206;2023-04-01T13:21:05;23.40;20.90
32394;DHT22;18853;45.426;9.206;2023-04-01T13:23:43;23.30;21.10
32394;DHT22;18853;45.426;9.206;2023-04-01T13:29:02;23.50;20.70
32394;DHT22;18853;45.426;9.206;2023-04-01T13:32:06;23.60;21.40
32394;DHT22;18853;45.426;9.206;2023-04-01T13:35:16;23.80;20.70
32394;DHT22;18853;45.426;9.206;2023-04-01T13:43:34;24.10;21.30
32394;DHT22;18853;45.426;9.206;2023-04-01T13:46:07;24.30;21.00
32394;DHT22;18853;45.426;9.206;2023-04-01T14:00:27;24.50;20.00
32394;DHT22;18853;45.426;9.206;2023-04-01T14:13:37;24.30;21.00
32394;DHT22;18853;45.426;9.206;2023-04-01T14:48:59;25.00;20.40
32394;DHT22;18853;45.426;9.206;2023-04-01T14:51:32;25.20;20.40
32394;DHT22;18853;45.426;9.206;2023-04-01T14:56:39;25.70;20.30
32394;DHT22;18853;45.426;9.206;2023-04-01T14:59:13;25.90;20.10
32394;DHT22;18853;45.426;9.206;2023-04-01T15:04:50;26.50;20.70
32394;DHT22;18853;45.426;9.206;2023-04-01T15:24:25;26.70;16.90
32394;DHT22;18853;45.426;9.206;2023-04-01T15:32:36;26.90;17.00
32394;DHT22;18853;45.426;9.206;2023-04-01T15:38:57;27.10;17.60
32394;DHT22;18853;45.426;9.206;2023-04-01T15:47:35;27.40;18.10
32394;DHT22;18853;45.426;9.206;2023-04-01T15:55:50;27.80;17.90
32394;DHT22;18853;45.426;9.206;2023-04-01T15:58:32;27.70;17.20
32394;DHT22;18853;45.426;9.206;2023-04-01T16:01:18;27.60;17.30
32394;DHT22;18853;45.426;9.206;2023-04-01T16:12:27;27.90;17.10
32394;DHT22;18853;45.426;9.206;2023-04-01T16:15:06;27.80;17.60
32394;DHT22;18853;45.426;9.206;2023-04-01T16:22:40;28.00;17.70
32394;DHT22;18853;45.426;9.206;2023-04-01T16:30:48;27.80;16.90
32394;DHT22;18853;45.426;9.206;2023-04-01T16:36:24;27.70;17.20
32394;DHT22;18853;45.426;9.206;2023-04-01T16:39:46;27.60;17.30
32394;DHT22;18853;45.426;9.206;2023-04-01T16:42:34;27.40;17.30
32394;DHT22;18853;45.426;9.206;2023-04-01T16:47:49;27.00;17.80
32394;DHT22;18853;45.426;9.206;2023-04-01T16:50:37;26.80;17.50
32394;DHT22;18853;45.426;9.206;2023-04-01T16:58:35;26.40;17.80
32394;DHT22;18853;45.426;9.206;2023-04-01T17:01:26;26.10;17.80
32394;DHT22;18853;45.426;9.206;2023-04-01T17:03:53;26.10;17.70
32394;DHT22;18853;45.426;9.206;2023-04-01T17:22:32;25.40;17.70
32394;DHT22;18853;45.426;9.206;2023-04-01T17:28:08;25.40;17.90
32394;DHT22;18853;45.426;9.206;2023-04-01T17:30:45;25.40;18.10
32394;DHT22;18853;45.426;9.206;2023-04-01T17:33:40;25.30;18.30
32394;DHT22;18853;45.426;9.206;2023-04-01T17:42:16;25.30;18.40
32394;DHT22;18853;45.426;9.206;2023-04-01T17:45:16;25.10;18.20
32394;DHT22;18853;45.426;9.206;2023-04-01T17:53:55;25.00;19.20
32394;DHT22;18853;45.426;9.206;2023-04-01T18:02:17;24.90;20.20
32394;DHT22;18853;45.426;9.206;2023-04-01T18:04:54;24.80;20.30
32394;DHT22;18853;45.426;9.206;2023-04-01T18:11:06;24.70;20.70
32394;DHT22;18853;45.426;9.206;2023-04-01T18:19:05;24.60;20.30
32394;DHT22;18853;45.426;9.206;2023-04-01T18:21:46;24.50;21.00
32394;DHT22;18853;45.426;9.206;2023-04-01T18:26:42;24.40;21.80
32394;DHT22;18853;45.426;9.206;2023-04-01T18:29:31;24.30;22.20
32394;DHT22;18853;45.426;9.206;2023-04-01T18:38:19;24.10;21.70
32394;DHT22;18853;45.426;9.206;2023-04-01T18:49:29;24.00;22.70
32394;DHT22;18853;45.426;9.206;2023-04-01T18:51:59;23.90;22.90
32394;DHT22;18853;45.426;9.206;2023-04-01T18:54:48;23.80;23.00
32394;DHT22;18853;45.426;9.206;2023-04-01T18:57:17;23.80;22.80
32394;DHT22;18853;45.426;9.206;2023-04-01T19:00:03;23.70;22.80
32394;DHT22;18853;45.426;9.206;2023-04-01T19:02:34;23.80;22.90
32394;DHT22;18853;45.426;9.206;2023-04-01T19:05:18;23.50;22.90
32394;DHT22;18853;45.426;9.206;2023-04-01T19:07:49;23.60;22.80
32394;DHT22;18853;45.426;9.206;2023-04-01T19:26:52;23.80;23.50
32394;DHT22;18853;45.426;9.206;2023-04-01T19:34:46;23.70;23.90
32394;DHT22;18853;45.426;9.206;2023-04-01T19:42:40;23.40;24.90
32394;DHT22;18853;45.426;9.206;2023-04-01T19:45:19;23.40;25.10
32394;DHT22;18853;45.426;9.206;2023-04-01T19:47:57;23.40;25.10
32394;DHT22;18853;45.426;9.206;2023-04-01T19:51:03;23.40;25.30
32394;DHT22;18853;45.426;9.206;2023-04-01T19:53:39;23.30;25.10
32394;DHT22;18853;45.426;9.206;2023-04-01T19:56:19;23.00;25.00
32394;DHT22;18853;45.426;9.206;2023-04-01T20:02:03;23.20;
32394;DHT22;18853;45.426;9.206;2023-04-01T20:04:54;23.30;24.00
32394;DHT22;18853;45.426;9.206;2023-04-01T20:07:41;23.30;23.40
32394;DHT22;18853;45.426;9.206;2023-04-01T20:10:13;23.30;23.80
32394;DHT22;18853;45.426;9.206;2023-04-01T20:15:40;23.20;23.10
32394;DHT22;18853;45.426;9.206;2023-04-01T20:18:21;23.20;22.90
32394;DHT22;18853;45.426;9.206;2023-04-01T20:21:00;23.20;23.10
32394;DHT22;18853;45.426;9.206;2023-04-01T20:23:43;23.10;23.10
32394;DHT22;18853;45.426;9.206;2023-04-01T20:26:20;23.10;23.10
32394;DHT22;18853;45.426;9.206;2023-04-01T20:43:35;23.10;23.00
32394;DHT22;18853;45.426;9.206;2023-04-01T20:51:33;23.10;22.50
32394;DHT22;18853;45.426;9.206;2023-04-01T20:57:25;23.00;22.60
32394;DHT22;18853;45.426;9.206;2023-04-01T21:07:11;22.90;22.90
32394;DHT22;18853;45.426;9.206;2023-04-01T21:18:02;22.80;22.40
32394;DHT22;18853;45.426;9.206;2023-04-01T21:21:01;22.80;22.40
32394;DHT22;18853;45.426;9.206;2023-04-01T21:29:16;22.70;22.10
32394;DHT22;18853;45.426;9.206;2023-04-01T21:35:08;22.70;22.10
32394;DHT22;18853;45.426;9.206;2023-04-01T21:38:14;22.70;22.00
32394;DHT22;18853;45.426;9.206;2023-04-01T21:40:59;22.50;22.10
32394;DHT22;18853;45.426;9.206;2023-04-01T21:49:26;22.50;21.90
32394;DHT22;18853;45.426;9.206;2023-04-01T22:00:14;22.30;22.20
32394;DHT22;18853;45.426;9.206;2023-04-01T22:02:59;22.30;22.00
32394;DHT22;18853;45.426;9.206;2023-04-01T22:14:48;22.20;23.00
32394;DHT22;18853;45.426;9.206;2023-04-01T22:19:48;22.10;22.50
32394;DHT22;18853;45.426;9.206;2023-04-01T22:22:22;22.00;22.70
32394;DHT22;18853;45.426;9.206;2023-04-01T22:25:08;22.00;22.80
32394;DHT22;18853;45.426;9.206;2023-04-01T22:27:56;22.00;22.80
32394;DHT22;18853;45.426;9.206;2023-04-01T22:30:35;21.90;22.80
32394;DHT22;18853;45.426;9.206;2023-04-01T22:43:42;21.80;23.00
32394;DHT22;18853;45.426;9.206;2023-04-01T22:51:15;21.80;23.40
32394;DHT22;18853;45.426;9.206;2023-04-01T22:54:34;21.70;23.40
32394;DHT22;18853;45.426;9.206;2023-04-01T23:02:18;21.60;23.60
32394;DHT22;18853;45.426;9.206;2023-04-01T23:04:53;21.60;23.60
32394;DHT22;18853;45.426;9.206;2023-04-01T23:07:45;21.50;23.60
32394;DHT22;18853;45.426;9.206;2023-04-01T23:10:33;21.60;23.60
32394;DHT22;18853;45.426;9.206;2023-04-01T23:13:10;21.50;23.60
32394;DHT22;18853;45.426;9.206;2023-04-01T23:15:36;21.50;23.70
32394;DHT22;18853;45.426;9.206;2023-04-01T23:18:05;21.50;23.70
32394;DHT22;18853;45.426;9.206;2023-04-01T23:20:56;21.50;24.20
32394;DHT22;18853;45.426;9.206;2023-04-01T23:23:26;21.50;23.50
32394;DHT22;18853;45.426;9.206;2023-04-01T23:28:46;21.50;23.60
32394;DHT22;18853;45.426;9.206;2023-04-01T23:33:59;21.40;23.70
32394;DHT22;18853;45.426;9.206;2023-04-01T23:36:26;21.40;23.80
32394;DHT22;18853;45.426;9.206;2023-04-01T23:38:52;21.30;24.20
32394;DHT22;18853;45.426;9.206;2023-04-01T23:41:28;21.40;24.40
32394;DHT22;18853;45.426;9.206;2023-04-01T23:44:05;21.40;24.90
32394;DHT22;18853;45.426;9.206;2023-04-01T23:46:34;21.10;25.10
32394;DHT22;18853;45.426;9.206;2023-04-01T23:49:02;21.10;25.20
32394;DHT22;18853;45.426;9.206;2023-04-01T23:51:37;21.10;25.30
32394;DHT22;18853;45.426;9.206;2023-04-01T23:54:14;21.10;25.70
32394;DHT22;18853;45.426;9.206;2023-04-01T23:56:54;21.00;25.70
32394;DHT22;18853;45.426;9.206;2023-04-01T23:59:32;21.00;25.90
